sensor_id;sensor_type;location;lat;lon;timestamp;P1;durP1;ratioP1;P2;durP2;ratioP2
7027;SDS011;3555;53.248;10.336;2023-06-10T00:01:32;6.18;;;3.17;;
7027;SDS011;3555;53.248;10.336;2023-06-10T00:04:01;6.95;;;3.30;;
7027;SDS011;3555;53.248;10.336;2023-06-10T00:06:29;7.88;;;3.47;;
7027;SDS011;3555;53.248;10.336;2023-06-10T00:09:01;9.80;;;4.10;;
7027;SDS011;3555;53.248;10.336;2023-06-10T00:11:30;7.57;;;3.22;;
7027;SDS011;3555;53.248;10.336;2023-06-10T00:13:57;8.32;;;3.50;;
7027;SDS011;3555;53.248;10.336;2023-06-10T00:16:25;6.28;;;2.92;;
7027;SDS011;3555;53.248;10.336;2023-06-10T00:18:52;8.25;;;3.50;;
7027;SDS011;3555;53.248;10.336;2023-06-10T00:21:20;5.63;;;3.40;;
7027;SDS011;3555;53.248;10.336;2023-06-10T00:23:49;7.03;;;3.95;;
7027;SDS011;3555;53.248;10.336;2023-06-10T00:26:18;7.25;;;3.33;;
7027;SDS011;3555;53.248;10.336;2023-06-10T00:28:45;5.95;;;3.42;;
7027;SDS011;3555;53.248;10.336;2023-06-10T00:31:12;6.55;;;3.30;;
7027;SDS011;3555;53.248;10.336;2023-06-10T00:33:39;7.43;;;3.58;;
7027;SDS011;3555;53.248;10.336;2023-06-10T00:36:06;10.68;;;3.40;;
7027;SDS011;3555;53.248;10.336;2023-06-10T00:38:33;6.88;;;3.42;;
7027;SDS011;3555;53.248;10.336;2023-06-10T00:40:59;7.72;;;3.17;;
7027;SDS011;3555;53.248;10.336;2023-06-10T00:43:28;7.43;;;3.33;;
7027;SDS011;3555;53.248;10.336;2023-06-10T00:45:54;7.00;;;3.63;;
7027;SDS011;3555;53.248;10.336;2023-06-10T00:48:21;8.00;;;3.15;;
7027;SDS011;3555;53.248;10.336;2023-06-10T00:50:48;4.70;;;2.90;;
7027;SDS011;3555;53.248;10.336;2023-06-10T00:53:16;6.55;;;3.35;;
7027;SDS011;3555;53.248;10.336;2023-06-10T00:55:43;10.52;;;3.45;;
7027;SDS011;3555;53.248;10.336;2023-06-10T00:58:10;8.13;;;3.22;;
7027;SDS011;3555;53.248;10.336;2023-06-10T01:00:38;5.85;;;3.30;;
7027;SDS011;3555;53.248;10.336;2023-06-10T01:03:05;9.00;;;3.58;;
7027;SDS011;3555;53.248;10.336;2023-06-10T01:05:33;7.95;;;3.10;;
7027;SDS011;3555;53.248;10.336;2023-06-10T01:08:03;10.18;;;3.88;;
7027;SDS011;3555;53.248;10.336;2023-06-10T01:10:38;7.40;;;3.22;;
7027;SDS011;3555;53.248;10.336;2023-06-10T01:13:09;6.55;;;3.22;;
7027;SDS011;3555;53.248;10.336;2023-06-10T01:15:39;9.68;;;3.17;;
7027;SDS011;3555;53.248;10.336;2023-06-10T01:18:06;7.85;;;3.15;;
7027;SDS011;3555;53.248;10.336;2023-06-10T01:20:35;9.13;;;3.42;;
7027;SDS011;3555;53.248;10.336;2023-06-10T01:23:06;6.85;;;3.33;;
7027;SDS011;3555;53.248;10.336;2023-06-10T01:25:34;9.75;;;3.40;;
7027;SDS011;3555;53.248;10.336;2023-06-10T01:28:04;11.00;;;3.38;;
7027;SDS011;3555;53.248;10.336;2023-06-10T01:30:36;6.20;;;3.03;;
7027;SDS011;3555;53.248;10.336;2023-06-10T01:33:09;7.13;;;3.20;;
7027;SDS011;3555;53.248;10.336;2023-06-10T01:35:37;6.40;;;3.22;;
7027;SDS011;3555;53.248;10.336;2023-06-10T01:38:06;9.52;;;3.30;;
7027;SDS011;3555;53.248;10.336;2023-06-10T01:40:33;5.38;;;2.97;;
7027;SDS011;3555;53.248;10.336;2023-06-10T01:43:01;7.18;;;3.10;;
7027;SDS011;3555;53.248;10.336;2023-06-10T01:45:28;7.55;;;3.70;;
7027;SDS011;3555;53.248;10.336;2023-06-10T01:47:55;7.85;;;3.58;;
7027;SDS011;3555;53.248;10.336;2023-06-10T01:50:22;9.40;;;3.95;;
7027;SDS011;3555;53.248;10.336;2023-06-10T01:52:49;10.68;;;4.05;;
7027;SDS011;3555;53.248;10.336;2023-06-10T01:55:17;7.72;;;3.55;;
7027;SDS011;3555;53.248;10.336;2023-06-10T01:57:44;8.27;;;3.42;;
7027;SDS011;3555;53.248;10.336;2023-06-10T02:00:12;8.93;;;3.58;;
7027;SDS011;3555;53.248;10.336;2023-06-10T02:02:39;6.82;;;3.83;;
7027;SDS011;3555;53.248;10.336;2023-06-10T02:05:06;7.85;;;3.05;;
7027;SDS011;3555;53.248;10.336;2023-06-10T02:07:33;8.70;;;3.47;;
7027;SDS011;3555;53.248;10.336;2023-06-10T02:10:00;6.15;;;2.90;;
7027;SDS011;3555;53.248;10.336;2023-06-10T02:12:28;5.75;;;3.45;;
7027;SDS011;3555;53.248;10.336;2023-06-10T02:14:55;10.82;;;3.67;;
7027;SDS011;3555;53.248;10.336;2023-06-10T02:17:22;7.53;;;3.40;;
7027;SDS011;3555;53.248;10.336;2023-06-10T02:19:49;7.65;;;2.97;;
7027;SDS011;3555;53.248;10.336;2023-06-10T02:22:19;8.85;;;2.90;;
7027;SDS011;3555;53.248;10.336;2023-06-10T02:24:47;12.57;;;3.50;;
7027;SDS011;3555;53.248;10.336;2023-06-10T02:27:14;7.03;;;3.65;;
7027;SDS011;3555;53.248;10.336;2023-06-10T02:29:42;7.68;;;3.38;;
7027;SDS011;3555;53.248;10.336;2023-06-10T02:32:09;7.53;;;3.38;;
7027;SDS011;3555;53.248;10.336;2023-06-10T02:34:36;9.55;;;3.42;;
7027;SDS011;3555;53.248;10.336;2023-06-10T02:37:03;6.70;;;3.00;;
7027;SDS011;3555;53.248;10.336;2023-06-10T02:39:31;7.22;;;3.10;;
7027;SDS011;3555;53.248;10.336;2023-06-10T02:41:57;7.80;;;2.80;;
7027;SDS011;3555;53.248;10.336;2023-06-10T02:44:24;9.45;;;3.42;;
7027;SDS011;3555;53.248;10.336;2023-06-10T02:46:53;9.48;;;2.63;;
7027;SDS011;3555;53.248;10.336;2023-06-10T02:49:20;8.18;;;3.55;;
7027;SDS011;3555;53.248;10.336;2023-06-10T02:51:46;11.70;;;3.28;;
7027;SDS011;3555;53.248;10.336;2023-06-10T02:54:13;5.28;;;2.80;;
7027;SDS011;3555;53.248;10.336;2023-06-10T02:56:41;10.43;;;3.45;;
7027;SDS011;3555;53.248;10.336;2023-06-10T02:59:08;8.68;;;3.05;;
7027;SDS011;3555;53.248;10.336;2023-06-10T03:01:35;7.22;;;2.80;;
7027;SDS011;3555;53.248;10.336;2023-06-10T03:04:04;7.45;;;2.90;;
7027;SDS011;3555;53.248;10.336;2023-06-10T03:06:32;7.32;;;2.45;;
7027;SDS011;3555;53.248;10.336;2023-06-10T03:09:00;5.25;;;2.67;;
7027;SDS011;3555;53.248;10.336;2023-06-10T03:11:29;7.25;;;2.38;;
7027;SDS011;3555;53.248;10.336;2023-06-10T03:13:57;6.85;;;2.45;;
7027;SDS011;3555;53.248;10.336;2023-06-10T03:16:24;6.20;;;2.92;;
7027;SDS011;3555;53.248;10.336;2023-06-10T03:18:52;7.60;;;2.40;;
7027;SDS011;3555;53.248;10.336;2023-06-10T03:21:21;7.18;;;2.50;;
7027;SDS011;3555;53.248;10.336;2023-06-10T03:23:48;7.13;;;2.42;;
7027;SDS011;3555;53.248;10.336;2023-06-10T03:26:14;6.68;;;2.40;;
7027;SDS011;3555;53.248;10.336;2023-06-10T03:28:41;4.60;;;2.53;;
7027;SDS011;3555;53.248;10.336;2023-06-10T03:31:08;5.68;;;2.63;;
7027;SDS011;3555;53.248;10.336;2023-06-10T03:33:35;7.35;;;2.78;;
7027;SDS011;3555;53.248;10.336;2023-06-10T03:36:02;6.55;;;2.70;;
7027;SDS011;3555;53.248;10.336;2023-06-10T03:38:31;9.65;;;2.70;;
7027;SDS011;3555;53.248;10.336;2023-06-10T03:40:58;6.55;;;2.63;;
7027;SDS011;3555;53.248;10.336;2023-06-10T03:43:25;7.18;;;2.63;;
7027;SDS011;3555;53.248;10.336;2023-06-10T03:45:52;7.78;;;2.83;;
7027;SDS011;3555;53.248;10.336;2023-06-10T03:48:19;6.22;;;2.47;;
7027;SDS011;3555;53.248;10.336;2023-06-10T03:50:46;5.72;;;2.33;;
7027;SDS011;3555;53.248;10.336;2023-06-10T03:53:15;7.68;;;2.60;;
7027;SDS011;3555;53.248;10.336;2023-06-10T03:55:44;6.50;;;2.55;;
7027;SDS011;3555;53.248;10.336;2023-06-10T03:58:11;6.22;;;2.53;;
7027;SDS011;3555;53.248;10.336;2023-06-10T04:00:38;8.73;;;3.22;;
7027;SDS011;3555;53.248;10.336;2023-06-10T04:03:07;6.07;;;2.60;;
7027;SDS011;3555;53.248;10.336;2023-06-10T04:05:39;5.20;;;2.42;;
7027;SDS011;3555;53.248;10.336;2023-06-10T04:08:06;5.45;;;2.50;;
7027;SDS011;3555;53.248;10.336;2023-06-10T04:10:33;4.13;;;2.35;;
7027;SDS011;3555;53.248;10.336;2023-06-10T04:13:01;5.72;;;2.38;;
7027;SDS011;3555;53.248;10.336;2023-06-10T04:15:29;7.10;;;2.53;;
7027;SDS011;3555;53.248;10.336;2023-06-10T04:17:57;7.90;;;3.28;;
7027;SDS011;3555;53.248;10.336;2023-06-10T04:20:25;7.45;;;2.28;;
7027;SDS011;3555;53.248;10.336;2023-06-10T04:22:52;5.63;;;2.83;;
7027;SDS011;3555;53.248;10.336;2023-06-10T04:25:19;5.40;;;2.38;;
7027;SDS011;3555;53.248;10.336;2023-06-10T04:27:46;5.13;;;2.63;;
7027;SDS011;3555;53.248;10.336;2023-06-10T04:30:15;7.95;;;2.75;;
7027;SDS011;3555;53.248;10.336;2023-06-10T04:32:42;5.88;;;2.30;;
7027;SDS011;3555;53.248;10.336;2023-06-10T04:35:11;6.05;;;2.42;;
7027;SDS011;3555;53.248;10.336;2023-06-10T04:37:39;5.90;;;2.40;;
7027;SDS011;3555;53.248;10.336;2023-06-10T04:40:06;5.80;;;2.10;;
7027;SDS011;3555;53.248;10.336;2023-06-10T04:42:34;6.22;;;2.65;;
7027;SDS011;3555;53.248;10.336;2023-06-10T04:45:01;8.48;;;2.58;;
7027;SDS011;3555;53.248;10.336;2023-06-10T04:47:30;5.72;;;2.80;;
7027;SDS011;3555;53.248;10.336;2023-06-10T04:49:58;5.38;;;2.33;;
7027;SDS011;3555;53.248;10.336;2023-06-10T04:52:25;6.75;;;2.88;;
7027;SDS011;3555;53.248;10.336;2023-06-10T04:54:52;5.85;;;2.92;;
7027;SDS011;3555;53.248;10.336;2023-06-10T04:57:20;12.10;;;3.42;;
7027;SDS011;3555;53.248;10.336;2023-06-10T04:59:47;10.75;;;2.90;;
7027;SDS011;3555;53.248;10.336;2023-06-10T05:02:14;12.48;;;4.15;;
7027;SDS011;3555;53.248;10.336;2023-06-10T05:04:42;6.03;;;2.58;;
7027;SDS011;3555;53.248;10.336;2023-06-10T05:07:09;9.13;;;3.13;;
7027;SDS011;3555;53.248;10.336;2023-06-10T05:09:36;9.27;;;2.90;;
7027;SDS011;3555;53.248;10.336;2023-06-10T05:12:04;6.78;;;2.88;;
7027;SDS011;3555;53.248;10.336;2023-06-10T05:14:31;8.82;;;2.72;;
7027;SDS011;3555;53.248;10.336;2023-06-10T05:16:58;8.30;;;3.55;;
7027;SDS011;3555;53.248;10.336;2023-06-10T05:19:25;8.80;;;3.63;;
7027;SDS011;3555;53.248;10.336;2023-06-10T05:21:53;6.47;;;2.92;;
7027;SDS011;3555;53.248;10.336;2023-06-10T05:24:20;8.85;;;2.80;;
7027;SDS011;3555;53.248;10.336;2023-06-10T05:26:48;6.95;;;3.25;;
7027;SDS011;3555;53.248;10.336;2023-06-10T05:29:15;6.40;;;3.05;;
7027;SDS011;3555;53.248;10.336;2023-06-10T05:31:42;7.90;;;2.83;;
7027;SDS011;3555;53.248;10.336;2023-06-10T05:34:09;6.05;;;2.65;;
7027;SDS011;3555;53.248;10.336;2023-06-10T05:36:35;7.75;;;2.80;;
7027;SDS011;3555;53.248;10.336;2023-06-10T05:39:04;7.50;;;2.80;;
7027;SDS011;3555;53.248;10.336;2023-06-10T05:41:31;6.13;;;2.67;;
7027;SDS011;3555;53.248;10.336;2023-06-10T05:43:58;6.55;;;2.40;;
7027;SDS011;3555;53.248;10.336;2023-06-10T05:46:25;10.93;;;3.10;;
7027;SDS011;3555;53.248;10.336;2023-06-10T05:48:51;10.27;;;3.17;;
7027;SDS011;3555;53.248;10.336;2023-06-10T05:51:18;9.68;;;2.88;;
7027;SDS011;3555;53.248;10.336;2023-06-10T05:53:45;7.53;;;2.83;;
7027;SDS011;3555;53.248;10.336;2023-06-10T05:56:14;8.77;;;3.67;;
7027;SDS011;3555;53.248;10.336;2023-06-10T05:58:40;6.63;;;2.50;;
7027;SDS011;3555;53.248;10.336;2023-06-10T06:01:07;7.40;;;2.60;;
7027;SDS011;3555;53.248;10.336;2023-06-10T06:03:34;7.43;;;2.25;;
7027;SDS011;3555;53.248;10.336;2023-06-10T06:06:02;7.45;;;2.80;;
7027;SDS011;3555;53.248;10.336;2023-06-10T06:08:29;6.63;;;2.25;;
7027;SDS011;3555;53.248;10.336;2023-06-10T06:10:56;7.03;;;2.10;;
7027;SDS011;3555;53.248;10.336;2023-06-10T06:13:24;4.80;;;2.05;;
7027;SDS011;3555;53.248;10.336;2023-06-10T06:15:51;6.82;;;2.47;;
7027;SDS011;3555;53.248;10.336;2023-06-10T06:18:18;8.40;;;2.50;;
7027;SDS011;3555;53.248;10.336;2023-06-10T06:20:45;5.90;;;2.72;;
7027;SDS011;3555;53.248;10.336;2023-06-10T06:23:12;6.95;;;2.38;;
7027;SDS011;3555;53.248;10.336;2023-06-10T06:25:39;7.63;;;2.67;;
7027;SDS011;3555;53.248;10.336;2023-06-10T06:28:06;6.60;;;2.38;;
7027;SDS011;3555;53.248;10.336;2023-06-10T06:30:35;7.72;;;2.35;;
7027;SDS011;3555;53.248;10.336;2023-06-10T06:33:02;6.07;;;2.70;;
7027;SDS011;3555;53.248;10.336;2023-06-10T06:35:30;7.32;;;2.15;;
7027;SDS011;3555;53.248;10.336;2023-06-10T06:37:57;3.90;;;1.90;;
7027;SDS011;3555;53.248;10.336;2023-06-10T06:40:24;5.22;;;2.17;;
7027;SDS011;3555;53.248;10.336;2023-06-10T06:42:51;7.10;;;2.60;;
7027;SDS011;3555;53.248;10.336;2023-06-10T06:45:18;4.47;;;1.70;;
7027;SDS011;3555;53.248;10.336;2023-06-10T06:47:47;4.90;;;2.03;;
7027;SDS011;3555;53.248;10.336;2023-06-10T06:50:14;6.93;;;2.08;;
7027;SDS011;3555;53.248;10.336;2023-06-10T06:52:41;5.30;;;2.10;;
7027;SDS011;3555;53.248;10.336;2023-06-10T06:55:08;6.88;;;2.50;;
7027;SDS011;3555;53.248;10.336;2023-06-10T06:57:35;5.57;;;2.10;;
7027;SDS011;3555;53.248;10.336;2023-06-10T07:00:03;5.32;;;2.13;;
7027;SDS011;3555;53.248;10.336;2023-06-10T07:02:30;5.38;;;2.03;;
7027;SDS011;3555;53.248;10.336;2023-06-10T07:04:59;7.85;;;2.20;;
7027;SDS011;3555;53.248;10.336;2023-06-10T07:07:26;6.30;;;2.50;;
7027;SDS011;3555;53.248;10.336;2023-06-10T07:09:53;5.90;;;2.20;;
7027;SDS011;3555;53.248;10.336;2023-06-10T07:12:21;6.65;;;2.47;;
7027;SDS011;3555;53.248;10.336;2023-06-10T07:14:49;7.93;;;2.33;;
7027;SDS011;3555;53.248;10.336;2023-06-10T07:17:16;6.07;;;2.50;;
7027;SDS011;3555;53.248;10.336;2023-06-10T07:19:43;8.45;;;2.38;;
7027;SDS011;3555;53.248;10.336;2023-06-10T07:22:11;7.07;;;2.25;;
7027;SDS011;3555;53.248;10.336;2023-06-10T07:24:38;6.13;;;2.45;;
7027;SDS011;3555;53.248;10.336;2023-06-10T07:27:05;6.32;;;2.20;;
7027;SDS011;3555;53.248;10.336;2023-06-10T07:29:32;9.50;;;2.13;;
7027;SDS011;3555;53.248;10.336;2023-06-10T07:32:00;9.68;;;2.92;;
7027;SDS011;3555;53.248;10.336;2023-06-10T07:34:28;7.82;;;2.70;;
7027;SDS011;3555;53.248;10.336;2023-06-10T07:36:54;7.45;;;2.58;;
7027;SDS011;3555;53.248;10.336;2023-06-10T07:39:23;5.75;;;1.92;;
7027;SDS011;3555;53.248;10.336;2023-06-10T07:41:50;5.47;;;2.20;;
7027;SDS011;3555;53.248;10.336;2023-06-10T07:44:18;6.80;;;2.40;;
7027;SDS011;3555;53.248;10.336;2023-06-10T07:46:45;6.95;;;2.33;;
7027;SDS011;3555;53.248;10.336;2023-06-10T07:49:12;7.63;;;2.72;;
7027;SDS011;3555;53.248;10.336;2023-06-10T07:51:39;6.90;;;2.35;;
7027;SDS011;3555;53.248;10.336;2023-06-10T07:54:06;4.70;;;2.10;;
7027;SDS011;3555;53.248;10.336;2023-06-10T07:56:35;4.50;;;2.30;;
7027;SDS011;3555;53.248;10.336;2023-06-10T07:59:02;5.72;;;2.53;;
7027;SDS011;3555;53.248;10.336;2023-06-10T08:01:28;8.05;;;2.15;;
7027;SDS011;3555;53.248;10.336;2023-06-10T08:03:56;6.63;;;2.25;;
7027;SDS011;3555;53.248;10.336;2023-06-10T08:06:23;6.93;;;2.28;;
7027;SDS011;3555;53.248;10.336;2023-06-10T08:08:50;6.40;;;2.55;;
7027;SDS011;3555;53.248;10.336;2023-06-10T08:11:17;5.32;;;2.10;;
7027;SDS011;3555;53.248;10.336;2023-06-10T08:13:45;9.40;;;2.58;;
7027;SDS011;3555;53.248;10.336;2023-06-10T08:16:12;6.03;;;2.40;;
7027;SDS011;3555;53.248;10.336;2023-06-10T08:18:39;4.43;;;2.47;;
7027;SDS011;3555;53.248;10.336;2023-06-10T08:21:07;6.88;;;2.50;;
7027;SDS011;3555;53.248;10.336;2023-06-10T08:23:33;5.13;;;2.20;;
7027;SDS011;3555;53.248;10.336;2023-06-10T08:26:00;7.15;;;2.70;;
7027;SDS011;3555;53.248;10.336;2023-06-10T08:28:27;8.40;;;2.17;;
7027;SDS011;3555;53.248;10.336;2023-06-10T08:30:56;7.55;;;3.08;;
7027;SDS011;3555;53.248;10.336;2023-06-10T08:33:23;8.45;;;2.50;;
7027;SDS011;3555;53.248;10.336;2023-06-10T08:35:49;7.15;;;2.42;;
7027;SDS011;3555;53.248;10.336;2023-06-10T08:38:16;7.72;;;2.75;;
7027;SDS011;3555;53.248;10.336;2023-06-10T08:40:43;8.35;;;2.45;;
7027;SDS011;3555;53.248;10.336;2023-06-10T08:43:13;6.03;;;2.40;;
7027;SDS011;3555;53.248;10.336;2023-06-10T08:45:45;5.53;;;2.30;;
7027;SDS011;3555;53.248;10.336;2023-06-10T08:48:16;9.13;;;2.00;;
7027;SDS011;3555;53.248;10.336;2023-06-10T08:50:45;6.00;;;2.22;;
7027;SDS011;3555;53.248;10.336;2023-06-10T08:53:13;5.97;;;2.53;;
7027;SDS011;3555;53.248;10.336;2023-06-10T08:55:46;8.07;;;2.90;;
7027;SDS011;3555;53.248;10.336;2023-06-10T08:58:17;6.10;;;2.53;;
7027;SDS011;3555;53.248;10.336;2023-06-10T09:00:44;5.15;;;2.65;;
7027;SDS011;3555;53.248;10.336;2023-06-10T09:03:11;11.35;;;2.83;;
7027;SDS011;3555;53.248;10.336;2023-06-10T09:05:40;7.38;;;2.63;;
7027;SDS011;3555;53.248;10.336;2023-06-10T09:08:08;9.05;;;2.60;;
7027;SDS011;3555;53.248;10.336;2023-06-10T09:10:35;5.65;;;2.80;;
7027;SDS011;3555;53.248;10.336;2023-06-10T09:13:02;6.47;;;2.50;;
7027;SDS011;3555;53.248;10.336;2023-06-10T09:15:29;5.95;;;2.20;;
7027;SDS011;3555;53.248;10.336;2023-06-10T09:17:56;5.80;;;2.60;;
7027;SDS011;3555;53.248;10.336;2023-06-10T09:20:23;6.18;;;2.10;;
7027;SDS011;3555;53.248;10.336;2023-06-10T09:22:51;5.72;;;2.55;;
7027;SDS011;3555;53.248;10.336;2023-06-10T09:25:18;6.55;;;2.83;;
7027;SDS011;3555;53.248;10.336;2023-06-10T09:27:45;7.35;;;2.80;;
7027;SDS011;3555;53.248;10.336;2023-06-10T09:30:23;6.53;;;2.90;;
7027;SDS011;3555;53.248;10.336;2023-06-10T09:32:52;7.95;;;2.63;;
7027;SDS011;3555;53.248;10.336;2023-06-10T09:35:21;6.35;;;3.00;;
7027;SDS011;3555;53.248;10.336;2023-06-10T09:37:51;6.18;;;2.80;;
7027;SDS011;3555;53.248;10.336;2023-06-10T09:40:18;7.15;;;2.88;;
7027;SDS011;3555;53.248;10.336;2023-06-10T09:42:45;6.38;;;2.53;;
7027;SDS011;3555;53.248;10.336;2023-06-10T09:45:14;6.53;;;2.72;;
7027;SDS011;3555;53.248;10.336;2023-06-10T09:47:41;7.47;;;2.55;;
7027;SDS011;3555;53.248;10.336;2023-06-10T09:50:09;6.28;;;2.65;;
7027;SDS011;3555;53.248;10.336;2023-06-10T09:52:36;6.40;;;2.72;;
7027;SDS011;3555;53.248;10.336;2023-06-10T09:55:07;5.95;;;2.80;;
7027;SDS011;3555;53.248;10.336;2023-06-10T09:57:35;5.60;;;2.58;;
7027;SDS011;3555;53.248;10.336;2023-06-10T10:00:04;8.40;;;3.20;;
7027;SDS011;3555;53.248;10.336;2023-06-10T10:02:33;6.97;;;2.90;;
7027;SDS011;3555;53.248;10.336;2023-06-10T10:05:11;7.93;;;2.92;;
7027;SDS011;3555;53.248;10.336;2023-06-10T10:07:39;6.80;;;2.33;;
7027;SDS011;3555;53.248;10.336;2023-06-10T10:10:08;4.68;;;2.15;;
7027;SDS011;3555;53.248;10.336;2023-06-10T10:12:36;6.53;;;3.25;;
7027;SDS011;3555;53.248;10.336;2023-06-10T10:15:05;5.90;;;2.78;;
7027;SDS011;3555;53.248;10.336;2023-06-10T10:17:34;4.60;;;2.90;;
7027;SDS011;3555;53.248;10.336;2023-06-10T10:20:04;7.78;;;2.80;;
7027;SDS011;3555;53.248;10.336;2023-06-10T10:22:35;6.88;;;2.83;;
7027;SDS011;3555;53.248;10.336;2023-06-10T10:25:05;9.35;;;2.67;;
7027;SDS011;3555;53.248;10.336;2023-06-10T10:27:40;3.97;;;2.45;;
7027;SDS011;3555;53.248;10.336;2023-06-10T10:30:10;9.57;;;2.72;;
7027;SDS011;3555;53.248;10.336;2023-06-10T10:32:40;9.27;;;3.05;;
7027;SDS011;3555;53.248;10.336;2023-06-10T10:35:16;6.13;;;3.13;;
7027;SDS011;3555;53.248;10.336;2023-06-10T10:37:46;5.53;;;3.03;;
7027;SDS011;3555;53.248;10.336;2023-06-10T10:40:15;6.80;;;3.33;;
7027;SDS011;3555;53.248;10.336;2023-06-10T10:42:43;4.05;;;2.83;;
7027;SDS011;3555;53.248;10.336;2023-06-10T10:45:10;5.38;;;2.83;;
7027;SDS011;3555;53.248;10.336;2023-06-10T10:47:37;6.15;;;3.03;;
7027;SDS011;3555;53.248;10.336;2023-06-10T10:50:12;5.10;;;2.65;;
7027;SDS011;3555;53.248;10.336;2023-06-10T10:52:46;5.78;;;3.00;;
7027;SDS011;3555;53.248;10.336;2023-06-10T10:55:19;8.02;;;3.40;;
7027;SDS011;3555;53.248;10.336;2023-06-10T10:57:53;7.32;;;3.25;;
7027;SDS011;3555;53.248;10.336;2023-06-10T11:00:24;6.47;;;3.10;;
7027;SDS011;3555;53.248;10.336;2023-06-10T11:02:57;5.55;;;2.80;;
7027;SDS011;3555;53.248;10.336;2023-06-10T11:05:31;4.68;;;2.95;;
7027;SDS011;3555;53.248;10.336;2023-06-10T11:08:02;7.38;;;3.38;;
7027;SDS011;3555;53.248;10.336;2023-06-10T11:10:31;4.93;;;2.80;;
7027;SDS011;3555;53.248;10.336;2023-06-10T11:12:59;4.30;;;2.85;;
7027;SDS011;3555;53.248;10.336;2023-06-10T11:15:27;7.28;;;3.72;;
7027;SDS011;3555;53.248;10.336;2023-06-10T11:18:14;5.45;;;2.95;;
7027;SDS011;3555;53.248;10.336;2023-06-10T11:20:52;6.05;;;2.92;;
7027;SDS011;3555;53.248;10.336;2023-06-10T11:23:30;5.05;;;3.20;;
7027;SDS011;3555;53.248;10.336;2023-06-10T11:26:19;6.28;;;3.05;;
7027;SDS011;3555;53.248;10.336;2023-06-10T11:29:01;7.10;;;3.10;;
7027;SDS011;3555;53.248;10.336;2023-06-10T11:31:30;6.65;;;3.40;;
7027;SDS011;3555;53.248;10.336;2023-06-10T11:33:58;7.38;;;3.40;;
7027;SDS011;3555;53.248;10.336;2023-06-10T11:36:27;6.57;;;3.35;;
7027;SDS011;3555;53.248;10.336;2023-06-10T11:38:56;6.63;;;3.45;;
7027;SDS011;3555;53.248;10.336;2023-06-10T11:41:25;6.30;;;3.03;;
7027;SDS011;3555;53.248;10.336;2023-06-10T11:43:54;6.80;;;3.10;;
7027;SDS011;3555;53.248;10.336;2023-06-10T11:46:22;5.57;;;3.28;;
7027;SDS011;3555;53.248;10.336;2023-06-10T11:48:52;4.95;;;3.30;;
7027;SDS011;3555;53.248;10.336;2023-06-10T11:51:20;6.30;;;3.15;;
7027;SDS011;3555;53.248;10.336;2023-06-10T11:53:48;6.90;;;3.20;;
7027;SDS011;3555;53.248;10.336;2023-06-10T11:56:19;6.90;;;3.50;;
7027;SDS011;3555;53.248;10.336;2023-06-10T11:58:51;5.18;;;3.10;;
7027;SDS011;3555;53.248;10.336;2023-06-10T12:01:20;5.63;;;3.67;;
7027;SDS011;3555;53.248;10.336;2023-06-10T12:03:48;6.90;;;3.75;;
7027;SDS011;3555;53.248;10.336;2023-06-10T12:06:23;5.97;;;3.15;;
7027;SDS011;3555;53.248;10.336;2023-06-10T12:08:50;6.28;;;3.65;;
7027;SDS011;3555;53.248;10.336;2023-06-10T12:11:17;4.93;;;3.17;;
7027;SDS011;3555;53.248;10.336;2023-06-10T12:13:49;8.35;;;3.75;;
7027;SDS011;3555;53.248;10.336;2023-06-10T12:16:16;7.70;;;3.30;;
7027;SDS011;3555;53.248;10.336;2023-06-10T12:18:44;17.30;;;6.57;;
7027;SDS011;3555;53.248;10.336;2023-06-10T12:21:20;4.63;;;2.80;;
7027;SDS011;3555;53.248;10.336;2023-06-10T12:24:04;6.78;;;3.38;;
7027;SDS011;3555;53.248;10.336;2023-06-10T12:26:36;6.03;;;3.22;;
7027;SDS011;3555;53.248;10.336;2023-06-10T12:29:21;6.07;;;3.30;;
7027;SDS011;3555;53.248;10.336;2023-06-10T12:34:36;5.47;;;3.40;;
7027;SDS011;3555;53.248;10.336;2023-06-10T12:37:04;8.75;;;4.07;;
7027;SDS011;3555;53.248;10.336;2023-06-10T12:39:33;7.18;;;3.63;;
7027;SDS011;3555;53.248;10.336;2023-06-10T12:42:00;7.00;;;3.20;;
7027;SDS011;3555;53.248;10.336;2023-06-10T12:44:35;5.15;;;3.47;;
7027;SDS011;3555;53.248;10.336;2023-06-10T12:47:09;6.07;;;3.30;;
7027;SDS011;3555;53.248;10.336;2023-06-10T12:49:37;8.50;;;3.65;;
7027;SDS011;3555;53.248;10.336;2023-06-10T12:52:05;6.35;;;3.75;;
7027;SDS011;3555;53.248;10.336;2023-06-10T12:54:32;4.85;;;3.00;;
7027;SDS011;3555;53.248;10.336;2023-06-10T12:57:00;9.10;;;3.53;;
7027;SDS011;3555;53.248;10.336;2023-06-10T12:59:27;5.93;;;2.92;;
7027;SDS011;3555;53.248;10.336;2023-06-10T13:01:55;6.18;;;3.53;;
7027;SDS011;3555;53.248;10.336;2023-06-10T13:04:22;4.82;;;3.10;;
7027;SDS011;3555;53.248;10.336;2023-06-10T13:06:49;4.85;;;3.03;;
7027;SDS011;3555;53.248;10.336;2023-06-10T13:09:16;3.67;;;3.03;;
7027;SDS011;3555;53.248;10.336;2023-06-10T13:11:43;6.32;;;3.70;;
7027;SDS011;3555;53.248;10.336;2023-06-10T13:14:10;7.20;;;3.50;;
7027;SDS011;3555;53.248;10.336;2023-06-10T13:16:37;5.38;;;3.47;;
7027;SDS011;3555;53.248;10.336;2023-06-10T13:19:06;7.50;;;3.33;;
7027;SDS011;3555;53.248;10.336;2023-06-10T13:21:33;7.80;;;3.40;;
7027;SDS011;3555;53.248;10.336;2023-06-10T13:24:00;6.25;;;3.90;;
7027;SDS011;3555;53.248;10.336;2023-06-10T13:26:28;7.80;;;3.60;;
7027;SDS011;3555;53.248;10.336;2023-06-10T13:28:55;8.05;;;3.55;;
7027;SDS011;3555;53.248;10.336;2023-06-10T13:31:23;7.80;;;3.50;;
7027;SDS011;3555;53.248;10.336;2023-06-10T13:33:50;8.55;;;3.28;;
7027;SDS011;3555;53.248;10.336;2023-06-10T13:36:18;6.85;;;3.70;;
7027;SDS011;3555;53.248;10.336;2023-06-10T13:38:45;6.85;;;3.50;;
7027;SDS011;3555;53.248;10.336;2023-06-10T13:41:12;4.35;;;3.05;;
7027;SDS011;3555;53.248;10.336;2023-06-10T13:43:39;5.88;;;3.60;;
7027;SDS011;3555;53.248;10.336;2023-06-10T13:46:06;5.20;;;2.95;;
7027;SDS011;3555;53.248;10.336;2023-06-10T13:48:33;9.65;;;3.60;;
7027;SDS011;3555;53.248;10.336;2023-06-10T13:51:00;7.88;;;3.30;;
7027;SDS011;3555;53.248;10.336;2023-06-10T13:53:28;7.43;;;3.28;;
7027;SDS011;3555;53.248;10.336;2023-06-10T13:55:55;7.47;;;3.45;;
7027;SDS011;3555;53.248;10.336;2023-06-10T13:58:22;6.93;;;3.35;;
7027;SDS011;3555;53.248;10.336;2023-06-10T14:00:49;7.68;;;3.80;;
7027;SDS011;3555;53.248;10.336;2023-06-10T14:03:16;5.03;;;3.38;;
7027;SDS011;3555;53.248;10.336;2023-06-10T14:05:43;3.53;;;3.08;;
7027;SDS011;3555;53.248;10.336;2023-06-10T14:08:10;4.68;;;3.10;;
7027;SDS011;3555;53.248;10.336;2023-06-10T14:10:38;9.27;;;3.35;;
7027;SDS011;3555;53.248;10.336;2023-06-10T14:13:05;8.38;;;3.10;;
7027;SDS011;3555;53.248;10.336;2023-06-10T14:15:32;5.18;;;3.22;;
7027;SDS011;3555;53.248;10.336;2023-06-10T14:17:59;7.03;;;3.25;;
7027;SDS011;3555;53.248;10.336;2023-06-10T14:20:26;4.85;;;3.15;;
7027;SDS011;3555;53.248;10.336;2023-06-10T14:22:56;7.50;;;3.70;;
7027;SDS011;3555;53.248;10.336;2023-06-10T14:25:23;4.80;;;3.58;;
7027;SDS011;3555;53.248;10.336;2023-06-10T14:27:51;7.00;;;3.47;;
7027;SDS011;3555;53.248;10.336;2023-06-10T14:30:18;5.90;;;3.70;;
7027;SDS011;3555;53.248;10.336;2023-06-10T14:32:45;7.53;;;3.28;;
7027;SDS011;3555;53.248;10.336;2023-06-10T14:35:12;12.02;;;3.55;;
7027;SDS011;3555;53.248;10.336;2023-06-10T14:37:39;3.88;;;2.97;;
7027;SDS011;3555;53.248;10.336;2023-06-10T14:40:07;3.95;;;3.25;;
7027;SDS011;3555;53.248;10.336;2023-06-10T14:42:34;6.88;;;3.00;;
7027;SDS011;3555;53.248;10.336;2023-06-10T14:45:03;7.25;;;3.40;;
7027;SDS011;3555;53.248;10.336;2023-06-10T14:47:31;5.18;;;3.10;;
7027;SDS011;3555;53.248;10.336;2023-06-10T14:49:58;6.30;;;3.70;;
7027;SDS011;3555;53.248;10.336;2023-06-10T14:52:25;6.50;;;3.72;;
7027;SDS011;3555;53.248;10.336;2023-06-10T14:54:52;4.63;;;3.17;;
7027;SDS011;3555;53.248;10.336;2023-06-10T14:57:18;4.25;;;3.00;;
7027;SDS011;3555;53.248;10.336;2023-06-10T14:59:45;6.68;;;3.20;;
7027;SDS011;3555;53.248;10.336;2023-06-10T15:02:14;9.00;;;3.25;;
7027;SDS011;3555;53.248;10.336;2023-06-10T15:04:40;7.45;;;3.65;;
7027;SDS011;3555;53.248;10.336;2023-06-10T15:07:08;7.13;;;3.40;;
7027;SDS011;3555;53.248;10.336;2023-06-10T15:09:35;5.35;;;3.50;;